TimeCDT,TemperatureF,Dew PointF,Humidity,Sea Level PressureIn,VisibilityMPH,Wind Direction,Wind SpeedMPH,Gust SpeedMPH,PrecipitationIn,Events,Conditions,WindDirDegrees,DateUTC
12:53 AM,73.9,71.1,91,30.14,9.0,South,8.1,-,N/A,,Clear,180,2013-08-26 05:53:00
1:53 AM,73.0,70.0,90,30.13,8.0,South,8.1,-,N/A,,Clear,180,2013-08-26 06:53:00
2:53 AM,73.0,70.0,90,30.12,8.0,South,10.4,-,N/A,,Clear,180,2013-08-26 07:53:00
3:53 AM,72.0,70.0,93,30.13,7.0,South,6.9,-,N/A,,Clear,180,2013-08-26 08:53:00
4:53 AM,72.0,70.0,93,30.12,6.0,South,8.1,-,N/A,,Clear,180,2013-08-26 09:53:00
5:53 AM,71.1,70.0,96,30.12,6.0,South,8.1,-,N/A,,Clear,180,2013-08-26 10:53:00
6:53 AM,71.1,70.0,96,30.13,5.0,South,10.4,-,N/A,,Clear,170,2013-08-26 11:53:00
7:53 AM,72.0,70.0,93,30.15,7.0,South,11.5,-,N/A,,Clear,180,2013-08-26 12:53:00
8:53 AM,77.0,70.0,79,30.15,10.0,South,12.7,-,N/A,,Clear,190,2013-08-26 13:53:00
9:53 AM,82.0,70.0,67,30.15,10.0,South,12.7,20.7,N/A,,Clear,190,2013-08-26 14:53:00
10:53 AM,84.9,69.1,59,30.14,10.0,SSW,16.1,-,N/A,,Clear,200,2013-08-26 15:53:00
11:53 AM,88.0,69.1,53,30.14,10.0,SSW,15.0,23.0,N/A,,Clear,210,2013-08-26 16:53:00
12:53 PM,90.0,69.1,50,30.12,10.0,South,18.4,-,N/A,,Clear,190,2013-08-26 17:53:00
1:53 PM,90.0,69.1,50,30.10,10.0,SSW,12.7,23.0,N/A,,Clear,210,2013-08-26 18:53:00
2:53 PM,91.0,68.0,47,30.08,10.0,South,13.8,-,N/A,,Clear,180,2013-08-26 19:53:00
3:53 PM,91.0,68.0,47,30.06,10.0,SSW,16.1,21.9,N/A,,Clear,200,2013-08-26 20:53:00
4:53 PM,91.0,68.0,47,30.05,10.0,South,13.8,20.7,N/A,,Clear,180,2013-08-26 21:53:00
5:53 PM,89.1,69.1,52,30.06,10.0,South,17.3,21.9,N/A,,Clear,190,2013-08-26 22:53:00
6:53 PM,87.1,69.1,55,30.05,10.0,South,12.7,-,N/A,,Clear,180,2013-08-26 23:53:00
7:53 PM,82.9,70.0,65,30.06,10.0,South,10.4,-,N/A,,Clear,170,2013-08-27 00:53:00
8:53 PM,80.1,69.1,69,30.06,10.0,South,10.4,-,N/A,,Clear,170,2013-08-27 01:53:00
9:53 PM,78.1,70.0,76,30.06,10.0,South,10.4,-,N/A,,Clear,180,2013-08-27 02:53:00
10:53 PM,75.9,70.0,82,30.05,10.0,South,10.4,-,N/A,,Clear,180,2013-08-27 03:53:00
11:53 PM,73.9,70.0,87,30.05,10.0,South,11.5,-,N/A,,Clear,180,2013-08-27 04:53:00